Time;durP1;ratioP1;P1;durP2;ratioP2;P2;SDS_P1;SDS_P2;PMS_P1;PMS_P2;Temp;Humidity;BMP_temperature;BMP_pressure;BME280_temperature;BME280_humidity;BME280_pressure;Samples;Min_cycle;Max_cycle;Signal;HPM_P1;HPM_P2
2020/12/17 00:01:30;;;;;;;22.00;16.58;;;9.40;93.40;;;;;;5013814;28;20042;-75
2020/12/17 00:03:55;;;;;;;21.15;15.98;;;9.40;93.40;;;;;;5013930;28;20539;-76
2020/12/17 00:06:44;;;;;;;25.63;16.17;;;10.00;93.60;;;;;;5023571;28;20077;-75
2020/12/17 00:09:10;;;;;;;27.73;16.40;;;9.40;93.40;;;;;;5028850;28;20041;-75
2020/12/17 00:11:35;;;;;;;21.63;15.77;;;10.10;93.60;;;;;;5013790;28;20034;-75
2020/12/17 00:14:21;;;;;;;20.13;15.82;;;9.50;93.30;;;;;;5012892;28;20409;-75
2020/12/17 00:16:47;;;;;;;21.60;16.63;;;10.60;93.50;;;;;;5029074;28;20117;-75
2020/12/17 00:19:36;;;;;;;22.25;16.10;;;9.50;93.30;;;;;;5013109;28;20471;-75
2020/12/17 00:22:22;;;;;;;21.40;15.52;;;9.50;93.30;;;;;;5026543;28;20038;-81
2020/12/17 00:24:48;;;;;;;23.90;16.70;;;9.40;93.30;;;;;;5012255;28;20438;-81
2020/12/17 00:27:35;;;;;;;21.98;16.27;;;9.50;93.30;;;;;;5009293;28;20053;-81
2020/12/17 00:30:20;;;;;;;21.80;16.77;;;9.40;93.30;;;;;;5026584;28;20050;-81
2020/12/17 00:33:06;;;;;;;23.05;15.80;;;9.50;93.30;;;;;;5012675;28;20406;-81
2020/12/17 00:35:32;;;;;;;21.48;16.73;;;9.50;93.40;;;;;;5013559;28;20105;-81
2020/12/17 00:37:58;;;;;;;22.40;16.05;;;9.50;93.40;;;;;;5028728;28;20117;-81
2020/12/17 00:40:44;;;;;;;20.88;15.27;;;9.50;93.20;;;;;;5040642;28;20064;-82
2020/12/17 00:43:09;;;;;;;20.17;14.50;;;10.10;93.20;;;;;;5012188;28;20486;-82
2020/12/17 00:45:35;;;;;;;20.75;16.10;;;9.50;93.10;;;;;;5013649;28;20038;-81
2020/12/17 00:48:01;;;;;;;21.48;16.30;;;9.50;93.10;;;;;;5012064;28;20034;-81
2020/12/17 00:50:27;;;;;;;23.50;16.23;;;9.50;93.10;;;;;;5013357;28;20117;-81
2020/12/17 00:53:13;;;;;;;22.85;16.17;;;9.50;93.10;;;;;;5026203;28;20042;-81
2020/12/17 00:55:39;;;;;;;21.05;14.25;;;9.60;93.20;;;;;;5012064;28;20501;-81
2020/12/17 00:58:25;;;;;;;23.13;15.95;;;9.50;93.10;;;;;;5039664;28;20034;-81
2020/12/17 01:01:10;;;;;;;26.73;18.95;;;9.50;93.00;;;;;;5040061;28;20104;-75
2020/12/17 01:03:36;;;;;;;21.95;16.80;;;9.50;93.00;;;;;;5012704;28;20466;-75
2020/12/17 01:06:06;;;;;;;21.98;16.00;;;9.50;93.10;;;;;;5012953;28;20045;-76
2020/12/17 01:08:31;;;;;;;21.60;15.95;;;10.10;93.20;;;;;;5012727;28;20584;-75
2020/12/17 01:10:57;;;;;;;20.50;15.25;;;10.60;93.30;;;;;;5044935;28;20046;-75
2020/12/17 01:13:43;;;;;;;21.48;14.73;;;9.50;92.90;;;;;;5039403;28;20060;-75
2020/12/17 01:16:11;;;;;;;17.10;13.55;;;10.50;93.20;;;;;;5029094;28;20029;-81
2020/12/17 01:18:37;;;;;;;20.10;15.02;;;9.50;92.80;;;;;;5013052;28;20049;-81
2020/12/17 01:21:23;;;;;;;19.83;15.35;;;9.80;92.90;;;;;;5040317;28;20045;-81
2020/12/17 01:23:49;;;;;;;21.33;14.82;;;9.50;92.90;;;;;;5014530;28;20034;-79
2020/12/17 01:26:15;;;;;;;19.02;13.70;;;9.50;92.90;;;;;;5013187;28;20056;-81
2020/12/17 01:29:00;;;;;;;19.63;15.13;;;9.60;92.90;;;;;;5041010;28;20042;-83
2020/12/17 01:31:26;;;;;;;19.85;14.77;;;9.50;92.80;;;;;;5028871;28;20041;-83
2020/12/17 01:34:12;;;;;;;20.67;14.77;;;9.50;92.80;;;;;;5021605;28;20066;-83
2020/12/17 01:36:38;;;;;;;20.02;14.40;;;9.50;92.80;;;;;;5012670;28;20029;-83
2020/12/17 01:39:04;;;;;;;20.50;15.20;;;10.00;93.00;;;;;;5028555;28;20062;-83
2020/12/17 01:41:30;;;;;;;20.95;15.25;;;9.70;93.00;;;;;;5012912;28;20083;-83
2020/12/17 01:44:01;;;;;;;18.33;14.23;;;9.50;92.90;;;;;;5012692;28;20490;-83
2020/12/17 01:46:28;;;;;;;23.58;15.65;;;9.50;93.00;;;;;;5013071;28;20085;-83
2020/12/17 01:48:54;;;;;;;24.08;15.35;;;9.60;93.10;;;;;;5028232;28;20041;-84
2020/12/17 01:51:20;;;;;;;23.08;15.55;;;9.50;93.10;;;;;;5013045;28;20045;-84
2020/12/17 01:53:48;;;;;;;21.58;15.93;;;9.50;93.20;;;;;;5013111;28;20030;-83
2020/12/17 01:56:28;;;;;;;21.90;14.98;;;10.00;93.30;;;;;;5011849;28;20042;-84
2020/12/17 01:59:25;;;;;;;20.77;15.13;;;9.50;93.30;;;;;;5000984;28;20129;-76
2020/12/17 02:01:53;;;;;;;22.88;14.38;;;9.50;93.40;;;;;;5016058;28;20029;-76
2020/12/17 02:04:24;;;;;;;21.52;15.73;;;9.50;93.50;;;;;;5016209;28;20498;-76
2020/12/17 02:06:51;;;;;;;22.60;15.25;;;9.50;93.50;;;;;;5016068;28;20030;-76
2020/12/17 02:09:38;;;;;;;20.95;14.77;;;10.30;93.70;;;;;;5043000;28;20161;-76
2020/12/17 02:12:04;;;;;;;22.63;15.30;;;9.50;93.60;;;;;;5015960;28;20034;-76
2020/12/17 02:14:30;;;;;;;21.85;14.93;;;9.50;93.50;;;;;;5015976;28;20042;-76
2020/12/17 02:16:55;;;;;;;19.23;15.55;;;9.50;93.70;;;;;;5015989;28;20485;-76
2020/12/17 02:19:22;;;;;;;17.63;14.48;;;9.50;93.70;;;;;;5048171;28;20123;-76
2020/12/17 02:21:48;;;;;;;21.95;14.35;;;9.60;93.70;;;;;;5030811;28;20034;-76
2020/12/17 02:24:34;;;;;;;23.45;15.15;;;9.50;93.70;;;;;;5021731;28;20089;-76
2020/12/17 02:27:20;;;;;;;19.75;13.73;;;9.50;93.70;;;;;;5042538;28;20125;-75
2020/12/17 02:29:45;;;;;;;18.33;13.00;;;9.50;93.80;;;;;;5015674;28;20401;-76
2020/12/17 02:32:11;;;;;;;20.55;14.07;;;9.50;93.60;;;;;;5015724;28;20100;-76
2020/12/17 02:34:37;;;;;;;20.52;13.90;;;9.50;93.70;;;;;;5015048;28;20402;-75
2020/12/17 02:37:03;;;;;;;21.48;13.65;;;9.40;93.70;;;;;;5030832;28;20057;-76
2020/12/17 02:39:49;;;;;;;19.33;13.98;;;9.50;93.80;;;;;;5042350;28;20065;-76
2020/12/17 02:42:15;;;;;;;20.15;13.48;;;9.40;93.80;;;;;;5015062;28;20112;-75
2020/12/17 02:44:46;;;;;;;21.48;13.98;;;9.50;93.70;;;;;;5015121;28;20045;-75
2020/12/17 02:47:12;;;;;;;21.67;14.02;;;9.50;93.70;;;;;;5015412;28;20042;-75
2020/12/17 02:49:38;;;;;;;19.15;13.68;;;9.50;93.80;;;;;;5015197;28;20045;-75
2020/12/17 02:52:04;;;;;;;25.35;14.93;;;9.50;93.70;;;;;;5015238;28;20064;-75
2020/12/17 02:54:30;;;;;;;19.08;14.77;;;9.50;93.80;;;;;;5015001;28;20421;-75
2020/12/17 02:56:56;;;;;;;20.20;14.82;;;9.40;93.80;;;;;;5015223;28;20096;-75
2020/12/17 02:59:23;;;;;;;24.17;15.13;;;9.50;93.80;;;;;;5015132;28;20042;-75
2020/12/17 03:01:48;;;;;;;22.95;14.43;;;9.40;93.80;;;;;;5015502;28;20034;-75
2020/12/17 03:04:17;;;;;;;19.98;14.35;;;9.40;93.90;;;;;;5013657;28;20383;-81
2020/12/17 03:07:05;;;;;;;18.10;14.98;;;9.40;93.90;;;;;;5046878;28;20052;-80
2020/12/17 03:09:31;;;;;;;21.70;16.00;;;9.60;94.00;;;;;;5014940;28;20037;-79
2020/12/17 03:12:17;;;;;;;25.08;16.63;;;9.40;93.90;;;;;;5046974;28;20508;-79
2020/12/17 03:14:42;;;;;;;23.73;15.70;;;9.40;93.90;;;;;;5039462;28;20038;-79
2020/12/17 03:17:28;;;;;;;22.70;15.52;;;9.40;93.90;;;;;;5001906;28;20038;-83
2020/12/17 03:19:54;;;;;;;22.65;14.80;;;9.50;94.00;;;;;;5013531;28;20494;-82
2020/12/17 03:22:40;;;;;;;21.15;14.98;;;9.40;94.00;;;;;;5041276;28;20490;-82
2020/12/17 03:25:10;;;;;;;27.08;16.85;;;9.40;94.00;;;;;;5014725;28;20133;-80
2020/12/17 03:27:36;;;;;;;25.35;16.00;;;9.40;94.00;;;;;;5014662;28;20088;-81
2020/12/17 03:30:07;;;;;;;23.70;15.55;;;9.40;94.00;;;;;;5014636;28;20042;-80
2020/12/17 03:32:33;;;;;;;22.42;15.95;;;9.40;93.90;;;;;;5013166;28;20129;-80
2020/12/17 03:34:59;;;;;;;24.98;16.60;;;9.60;94.10;;;;;;5013648;28;20088;-80
2020/12/17 03:37:27;;;;;;;25.38;16.30;;;9.40;94.00;;;;;;5045704;28;20038;-83
2020/12/17 03:39:53;;;;;;;23.15;16.10;;;9.40;93.90;;;;;;5014587;28;20108;-82
2020/12/17 03:42:19;;;;;;;23.73;16.52;;;9.40;94.00;;;;;;5014351;28;20049;-82
2020/12/17 03:44:46;;;;;;;24.23;16.95;;;9.40;94.10;;;;;;5014118;28;20036;-76
2020/12/17 03:47:12;;;;;;;22.95;16.33;;;9.40;94.00;;;;;;5014496;28;20030;-76
2020/12/17 03:49:58;;;;;;;22.90;16.83;;;10.60;94.40;;;;;;5041002;28;20542;-76
2020/12/17 03:52:23;;;;;;;23.75;17.95;;;9.40;94.10;;;;;;5014255;28;20113;-76
2020/12/17 03:54:49;;;;;;;24.50;17.73;;;9.40;94.10;;;;;;5014260;28;20042;-76
2020/12/17 03:57:15;;;;;;;21.80;16.08;;;9.90;94.40;;;;;;5011572;28;20123;-76
2020/12/17 03:59:41;;;;;;;23.30;17.35;;;9.30;94.10;;;;;;5012783;28;20108;-76
2020/12/17 04:02:27;;;;;;;24.52;17.27;;;9.30;94.20;;;;;;4999032;28;20042;-77
2020/12/17 04:04:52;;;;;;;23.70;16.63;;;10.00;94.30;;;;;;5014024;28;20078;-75
2020/12/17 04:07:18;;;;;;;23.33;16.92;;;9.40;94.20;;;;;;5012741;28;20108;-76
2020/12/17 04:09:44;;;;;;;19.95;14.88;;;9.70;94.30;;;;;;5012680;28;20069;-76
2020/12/17 04:12:10;;;;;;;24.25;16.80;;;9.30;94.20;;;;;;5013598;28;20060;-76
2020/12/17 04:14:36;;;;;;;22.42;16.17;;;9.40;94.30;;;;;;5013920;28;20030;-75
2020/12/17 04:17:21;;;;;;;24.85;17.42;;;9.40;94.20;;;;;;5012961;28;20042;-76
2020/12/17 04:19:47;;;;;;;25.95;16.88;;;9.30;94.30;;;;;;5012891;28;20120;-75
2020/12/17 04:22:33;;;;;;;23.60;17.00;;;9.50;94.40;;;;;;5012158;28;20042;-75
2020/12/17 04:24:59;;;;;;;24.52;17.33;;;9.30;94.40;;;;;;5012791;28;20118;-75
2020/12/17 04:27:24;;;;;;;22.88;16.42;;;9.30;94.30;;;;;;5013277;28;20446;-75
2020/12/17 04:29:50;;;;;;;21.17;16.38;;;9.30;94.40;;;;;;5013221;28;20038;-75
2020/12/17 04:32:16;;;;;;;23.23;16.85;;;9.30;94.40;;;;;;5012958;28;20081;-80
2020/12/17 04:34:42;;;;;;;25.00;16.30;;;9.40;94.40;;;;;;5013389;28;20044;-80
2020/12/17 04:37:07;;;;;;;25.40;17.40;;;9.30;94.40;;;;;;5012405;28;20053;-80
2020/12/17 04:39:33;;;;;;;22.40;17.23;;;10.00;94.60;;;;;;5013644;28;20044;-81
2020/12/17 04:42:02;;;;;;;23.08;16.88;;;9.40;94.40;;;;;;5013416;28;20038;-81
2020/12/17 04:44:49;;;;;;;22.00;16.85;;;9.40;94.50;;;;;;4995433;28;20063;-81
2020/12/17 04:47:22;;;;;;;25.45;16.25;;;9.30;94.50;;;;;;5013525;28;20047;-84
2020/12/17 04:49:52;;;;;;;23.75;17.45;;;9.40;94.50;;;;;;5012523;28;20053;-84
2020/12/17 04:52:19;;;;;;;22.95;16.77;;;9.40;94.50;;;;;;5013010;28;20037;-76
2020/12/17 04:54:45;;;;;;;24.25;16.77;;;9.30;94.50;;;;;;5010611;28;20110;-77
2020/12/17 04:57:13;;;;;;;27.45;17.33;;;8.90;94.30;;;;;;5012069;28;20033;-76
2020/12/17 04:59:50;;;;;;;22.60;17.58;;;9.30;94.50;;;;;;5012880;28;20048;-77
2020/12/17 05:02:36;;;;;;;25.83;17.83;;;9.40;94.60;;;;;;5012039;28;20073;-76
2020/12/17 05:05:23;;;;;;;;;;;9.50;94.70;;;;;;5011955;28;20112;-77
2020/12/17 05:07:51;;;;;;;29.90;17.98;;;9.30;94.70;;;;;;5011996;28;19928;-77
2020/12/17 05:10:17;;;;;;;22.20;17.15;;;10.50;95.10;;;;;;5012879;28;20034;-76
2020/12/17 05:13:04;;;;;;;22.40;15.43;;;9.30;94.80;;;;;;5011831;28;20046;-76
2020/12/17 05:15:50;;;;;;;24.65;17.73;;;9.30;94.80;;;;;;4998752;28;20567;-75
2020/12/17 05:18:16;;;;;;;27.35;19.17;;;9.30;94.90;;;;;;5011905;28;20066;-75
2020/12/17 05:21:03;;;;;;;24.67;17.58;;;9.30;94.90;;;;;;4999737;28;20052;-75
2020/12/17 05:23:29;;;;;;;27.60;18.77;;;9.30;95.10;;;;;;5012725;28;20040;-75
2020/12/17 05:25:55;;;;;;;28.70;18.20;;;9.60;95.30;;;;;;5012797;28;20042;-75
2020/12/17 05:28:41;;;;;;;26.52;17.65;;;9.30;95.10;;;;;;4997785;28;20046;-75
2020/12/17 05:31:28;;;;;;;31.13;18.63;;;9.30;95.20;;;;;;5001354;28;20054;-75
2020/12/17 05:34:14;;;;;;;;;;;9.20;95.30;;;;;;5014963;28;20587;-75
2020/12/17 05:37:00;;;;;;;27.35;18.60;;;9.60;95.20;;;;;;5015799;28;20027;-75
2020/12/17 05:39:27;;;;;;;27.02;19.17;;;9.30;95.30;;;;;;5015352;28;20036;-75
2020/12/17 05:42:14;;;;;;;31.55;18.40;;;9.20;95.30;;;;;;5018242;28;20501;-75
2020/12/17 05:44:40;;;;;;;33.45;20.75;;;9.80;95.40;;;;;;5003088;28;20044;-75
2020/12/17 05:47:11;;;;;;;27.35;19.70;;;9.30;95.30;;;;;;5016674;28;20030;-75
2020/12/17 05:49:37;;;;;;;28.40;18.20;;;9.20;95.40;;;;;;5015293;28;20037;-74
2020/12/17 05:52:17;;;;;;;28.92;18.75;;;9.20;95.40;;;;;;5031343;28;20037;-74
2020/12/17 05:55:00;;;;;;;28.67;19.65;;;9.20;95.50;;;;;;5016365;28;20030;-74
2020/12/17 05:57:52;;;;;;;26.90;19.27;;;9.30;95.60;;;;;;5015231;28;20046;-74
2020/12/17 06:00:39;;;;;;;29.42;18.80;;;9.30;95.50;;;;;;5015124;28;20054;-74
2020/12/17 06:03:11;;;;;;;30.55;20.02;;;9.20;95.60;;;;;;5015846;28;20026;-75
2020/12/17 06:05:43;;;;;;;32.72;20.05;;;9.30;95.60;;;;;;5016239;28;20482;-75
2020/12/17 06:08:16;;;;;;;33.60;19.77;;;9.20;95.70;;;;;;5016255;28;20474;-74
2020/12/17 06:10:55;;;;;;;34.72;20.55;;;9.30;95.80;;;;;;5009603;28;20061;-75
2020/12/17 06:13:21;;;;;;;34.42;21.05;;;9.20;95.80;;;;;;5015912;28;20038;-76
2020/12/17 06:16:09;;;;;;;31.08;19.92;;;9.20;95.80;;;;;;5015397;28;20136;-76
2020/12/17 06:18:57;;;;;;;31.67;20.33;;;9.30;95.90;;;;;;5016061;28;20433;-76
2020/12/17 06:21:27;;;;;;;40.10;21.50;;;9.20;95.90;;;;;;5015974;28;20041;-76
2020/12/17 06:23:57;;;;;;;41.95;22.75;;;10.10;96.20;;;;;;5014477;28;20046;-77
2020/12/17 06:26:24;;;;;;;35.22;22.13;;;9.20;96.00;;;;;;5015881;28;20045;-76
2020/12/17 06:28:52;;;;;;;36.45;22.75;;;9.20;96.10;;;;;;5015869;28;20045;-76
2020/12/17 06:31:20;;;;;;;42.10;22.90;;;9.20;96.20;;;;;;5016132;28;20030;-77
2020/12/17 06:33:46;;;;;;;36.60;22.42;;;9.30;96.10;;;;;;5030668;28;20046;-77
2020/12/17 06:36:26;;;;;;;33.05;21.48;;;9.30;96.10;;;;;;5014543;28;20038;-76
2020/12/17 06:38:53;;;;;;;35.22;20.80;;;9.30;96.20;;;;;;5015757;28;20054;-82
2020/12/17 06:41:21;;;;;;;34.13;21.23;;;9.20;96.20;;;;;;5014454;28;20053;-81
2020/12/17 06:43:47;;;;;;;34.65;22.15;;;9.30;96.20;;;;;;5013764;28;20128;-81
2020/12/17 06:46:29;;;;;;;41.13;23.88;;;9.80;96.30;;;;;;5015478;28;20113;-82
2020/12/17 06:49:23;;;;;;;28.60;19.63;;;9.30;96.20;;;;;;5013492;28;20506;-81
2020/12/17 06:52:01;;;;;;;29.95;19.90;;;9.20;96.20;;;;;;5014195;28;20034;-89
2020/12/17 06:54:27;;;;;;;28.55;19.38;;;9.20;96.30;;;;;;5015278;28;20044;-76
2020/12/17 06:57:07;;;;;;;28.85;18.92;;;9.20;96.30;;;;;;5015412;28;20033;-77
2020/12/17 07:00:08;;;;;;;28.70;19.20;;;9.20;96.30;;;;;;5003631;28;20394;-77
2020/12/17 07:02:54;;;;;;;29.27;18.63;;;9.90;96.40;;;;;;5014219;28;20046;-77
2020/12/17 07:05:42;;;;;;;23.73;15.88;;;9.20;96.20;;;;;;5005314;28;20038;-76
2020/12/17 07:08:08;;;;;;;28.60;17.90;;;9.30;96.30;;;;;;5015272;28;20044;-76
2020/12/17 07:10:38;;;;;;;25.25;16.70;;;9.20;96.20;;;;;;5013787;28;20034;-76
2020/12/17 07:13:04;;;;;;;29.73;17.88;;;9.10;96.20;;;;;;5014929;28;20436;-76
2020/12/17 07:15:35;;;;;;;26.50;16.58;;;9.10;96.20;;;;;;5046631;28;20038;-76
2020/12/17 07:18:16;;;;;;;28.05;17.42;;;9.10;96.20;;;;;;5009574;28;20049;-87
2020/12/17 07:21:07;;;;;;;21.02;15.20;;;10.40;96.50;;;;;;5026153;28;20132;-86
2020/12/17 07:23:52;;;;;;;21.83;14.75;;;9.10;96.20;;;;;;4998386;28;20157;-87
2020/12/17 07:26:18;;;;;;;26.08;15.98;;;9.10;96.10;;;;;;5030242;28;20084;-85
2020/12/17 07:28:54;;;;;;;17.20;13.27;;;9.20;96.50;;;;;;4980907;28;20140;-86
2020/12/17 07:31:24;;;;;;;24.95;14.95;;;10.40;96.60;;;;;;5010076;28;20578;-85
2020/12/17 07:33:52;;;;;;;17.98;13.00;;;9.80;96.30;;;;;;5012667;28;20053;-85
2020/12/17 07:36:38;;;;;;;15.60;11.23;;;9.10;96.20;;;;;;5012303;28;20107;-79
2020/12/17 07:39:07;;;;;;;19.05;12.27;;;9.10;96.20;;;;;;5013343;28;20437;-79
2020/12/17 07:42:03;;;;;;;18.75;13.70;;;9.10;96.10;;;;;;5036728;28;20042;-79
2020/12/17 07:44:36;;;;;;;18.92;12.02;;;9.10;96.10;;;;;;5013363;28;20113;-81
2020/12/17 07:47:19;;;;;;;21.08;13.10;;;9.10;96.20;;;;;;5011096;28;20046;-84
2020/12/17 07:49:45;;;;;;;18.15;12.07;;;9.10;96.10;;;;;;5012861;28;20061;-83
2020/12/17 07:52:34;;;;;;;22.92;14.43;;;9.10;96.10;;;;;;5014308;28;20470;-83
2020/12/17 07:55:21;;;;;;;21.10;13.98;;;9.10;96.10;;;;;;4999115;28;20073;-83
2020/12/17 07:57:47;;;;;;;18.00;13.93;;;9.10;96.10;;;;;;5013072;28;20033;-83
2020/12/17 08:00:13;;;;;;;18.00;13.80;;;9.00;96.10;;;;;;5029816;28;20033;-84
2020/12/17 08:02:42;;;;;;;20.33;13.70;;;9.00;96.00;;;;;;5014705;28;20053;-84
2020/12/17 08:05:28;;;;;;;21.92;13.43;;;9.00;96.10;;;;;;5012406;28;20034;-85
2020/12/17 08:07:56;;;;;;;18.80;13.65;;;9.00;96.00;;;;;;4981692;28;20095;-85
2020/12/17 08:10:22;;;;;;;23.40;13.57;;;9.80;96.30;;;;;;5014397;28;20050;-84
2020/12/17 08:12:48;;;;;;;19.92;13.77;;;9.00;96.10;;;;;;5014774;28;20042;-84
2020/12/17 08:15:35;;;;;;;26.80;15.48;;;9.30;96.20;;;;;;5028200;28;20459;-83
2020/12/17 08:18:35;;;;;;;20.63;14.25;;;9.00;96.10;;;;;;5000602;28;20045;-84
2020/12/17 08:21:12;;;;;;;14.77;12.23;;;8.90;96.10;;;;;;5010687;28;20065;-84
2020/12/17 08:23:41;;;;;;;16.73;12.15;;;8.90;96.10;;;;;;5015395;28;20042;-83
2020/12/17 08:26:11;;;;;;;15.20;11.77;;;8.90;96.10;;;;;;5024999;28;20040;-84
2020/12/17 08:28:39;;;;;;;16.83;13.63;;;8.90;96.10;;;;;;5015217;28;20034;-84
2020/12/17 08:31:29;;;;;;;16.30;11.20;;;9.00;96.10;;;;;;5022496;28;20042;-83
2020/12/17 08:33:58;;;;;;;16.25;12.48;;;9.40;96.30;;;;;;5014130;28;20100;-84
2020/12/17 08:36:43;;;;;;;19.77;11.90;;;9.10;96.20;;;;;;5012178;28;20490;-84
2020/12/17 08:39:12;;;;;;;16.63;12.50;;;9.00;96.40;;;;;;4997266;28;20035;-84
2020/12/17 08:41:47;;;;;;;15.20;9.98;;;9.00;96.10;;;;;;5008545;28;20030;-84
2020/12/17 08:44:18;;;;;;;17.00;12.02;;;9.00;96.10;;;;;;5014039;28;20049;-84
2020/12/17 08:46:53;;;;;;;12.93;10.27;;;9.70;96.30;;;;;;5013657;28;20052;-84
2020/12/17 08:49:22;;;;;;;15.95;10.48;;;9.50;96.30;;;;;;5014776;28;20034;-85
2020/12/17 08:51:48;;;;;;;11.20;9.15;;;9.00;96.10;;;;;;5012953;28;20112;-85
2020/12/17 08:54:32;;;;;;;14.95;9.52;;;9.10;96.10;;;;;;5013650;28;20116;-85
2020/12/17 08:57:19;;;;;;;17.48;10.35;;;9.00;96.00;;;;;;5012161;28;20049;-84
2020/12/17 09:00:12;;;;;;;12.40;10.02;;;9.00;96.10;;;;;;5013044;28;20100;-83
2020/12/17 09:02:40;;;;;;;15.38;10.57;;;9.30;96.20;;;;;;5014853;28;20433;-84
2020/12/17 09:05:26;;;;;;;22.65;13.55;;;9.00;96.00;;;;;;4999785;28;20045;-84
2020/12/17 09:07:53;;;;;;;19.75;11.40;;;9.00;96.10;;;;;;5012798;28;20041;-84
2020/12/17 09:10:18;;;;;;;17.85;13.05;;;9.00;96.10;;;;;;5012631;28;20084;-85
2020/12/17 09:12:47;;;;;;;23.23;14.80;;;9.00;96.00;;;;;;5013037;28;20041;-85
2020/12/17 09:15:14;;;;;;;19.40;13.68;;;9.00;96.10;;;;;;5010593;28;20054;-83
2020/12/17 09:18:09;;;;;;;18.58;13.30;;;9.00;96.00;;;;;;5011271;28;20053;-85
2020/12/17 09:20:35;;;;;;;21.17;15.00;;;9.00;96.00;;;;;;5010321;28;20068;-85
2020/12/17 09:23:08;;;;;;;20.13;14.75;;;8.70;95.80;;;;;;5010026;28;20038;-84
2020/12/17 09:25:54;;;;;;;24.83;15.80;;;8.90;95.90;;;;;;5010842;28;20050;-76
2020/12/17 09:28:23;;;;;;;20.15;15.20;;;9.00;96.00;;;;;;5011428;28;20030;-78
2020/12/17 09:30:49;;;;;;;23.45;17.23;;;8.90;95.90;;;;;;5009473;28;20061;-85
2020/12/17 09:33:18;;;;;;;21.27;15.48;;;8.90;96.00;;;;;;5007403;28;20070;-85
2020/12/17 09:35:43;;;;;;;23.50;17.20;;;9.00;96.10;;;;;;5024459;28;20029;-84
2020/12/17 09:38:16;;;;;;;28.92;16.80;;;9.00;96.10;;;;;;5012089;28;20052;-84
2020/12/17 09:40:44;;;;;;;21.23;15.40;;;9.80;96.40;;;;;;5009276;28;20035;-84
2020/12/17 09:43:12;;;;;;;21.13;16.15;;;9.00;96.10;;;;;;5014593;28;20045;-84
2020/12/17 09:46:01;;;;;;;23.40;16.08;;;9.00;96.10;;;;;;5011556;28;20084;-84
2020/12/17 09:48:47;;;;;;;22.48;16.92;;;9.50;96.30;;;;;;4997660;28;20042;-84
2020/12/17 09:51:13;;;;;;;23.77;17.25;;;9.80;96.40;;;;;;5011526;28;20030;-85
2020/12/17 09:53:41;;;;;;;28.15;19.13;;;9.10;96.20;;;;;;5010623;28;20038;-84
2020/12/17 09:56:11;;;;;;;26.08;17.02;;;9.20;96.10;;;;;;5040239;28;20046;-84
2020/12/17 09:58:41;;;;;;;27.63;19.13;;;9.20;96.10;;;;;;5010737;28;20061;-85
2020/12/17 10:01:27;;;;;;;27.35;18.70;;;9.60;96.10;;;;;;5010061;28;20045;-85
2020/12/17 10:03:52;;;;;;;27.25;18.00;;;9.20;96.10;;;;;;5011000;28;20536;-85
2020/12/17 10:06:19;;;;;;;29.23;19.90;;;9.20;96.10;;;;;;5024656;28;20068;-85
2020/12/17 10:08:45;;;;;;;26.63;19.33;;;9.20;96.00;;;;;;5027044;28;20108;-85
2020/12/17 10:11:12;;;;;;;25.48;17.65;;;9.20;95.90;;;;;;5018006;28;20061;-85
2020/12/17 10:13:58;;;;;;;28.65;20.15;;;9.20;95.90;;;;;;5037625;28;20177;-84
2020/12/17 10:16:25;;;;;;;23.23;17.30;;;9.80;96.00;;;;;;5007848;28;20478;-85
2020/12/17 10:18:51;;;;;;;20.70;17.35;;;9.20;95.80;;;;;;5027196;28;20072;-77
2020/12/17 10:21:17;;;;;;;27.67;19.20;;;9.20;95.70;;;;;;5014570;28;20061;-77
2020/12/17 10:23:43;;;;;;;24.52;18.73;;;9.20;95.60;;;;;;5015152;28;20109;-84
2020/12/17 10:26:30;;;;;;;25.65;19.08;;;9.20;95.70;;;;;;4987713;28;20046;-85
2020/12/17 10:28:57;;;;;;;24.27;17.90;;;9.20;95.60;;;;;;5030536;28;20501;-84
2020/12/17 10:31:23;;;;;;;23.30;17.58;;;9.20;95.70;;;;;;5013064;28;20037;-85
2020/12/17 10:33:48;;;;;;;26.85;18.85;;;9.30;95.80;;;;;;5015145;28;20433;-85
2020/12/17 10:36:14;;;;;;;24.90;17.88;;;9.30;95.70;;;;;;5016044;28;20088;-85
2020/12/17 10:38:40;;;;;;;24.05;19.48;;;9.50;95.60;;;;;;5015380;28;20566;-78
2020/12/17 10:41:27;;;;;;;25.88;20.85;;;9.30;95.50;;;;;;5014660;28;20397;-84
2020/12/17 10:44:13;;;;;;;25.67;19.48;;;9.30;95.50;;;;;;5005638;28;20486;-85
2020/12/17 10:46:39;;;;;;;29.17;22.58;;;9.30;95.50;;;;;;5031247;28;20525;-84
2020/12/17 10:49:06;;;;;;;30.13;22.38;;;9.30;95.50;;;;;;5013538;28;20455;-79
2020/12/17 10:51:53;;;;;;;26.15;21.55;;;9.30;95.60;;;;;;5000410;28;20053;-77
2020/12/17 10:54:19;;;;;;;26.27;21.67;;;9.30;95.40;;;;;;5013565;28;20113;-85
2020/12/17 10:57:05;;;;;;;28.23;21.20;;;10.10;95.60;;;;;;5009033;28;20437;-85
2020/12/17 10:59:31;;;;;;;27.17;22.42;;;9.30;95.40;;;;;;5012171;28;20033;-78
2020/12/17 11:02:00;;;;;;;32.17;22.77;;;9.40;95.50;;;;;;5014720;28;20534;-78
2020/12/17 11:04:26;;;;;;;28.77;23.35;;;9.40;95.50;;;;;;5029040;28;20088;-78
2020/12/17 11:07:21;;;;;;;28.13;22.70;;;9.90;95.60;;;;;;5013742;28;20468;-86
2020/12/17 11:09:47;;;;;;;26.90;21.23;;;9.60;95.50;;;;;;5046725;28;20040;-78
2020/12/17 11:12:13;;;;;;;27.23;21.88;;;9.40;95.50;;;;;;5013274;28;20029;-78
2020/12/17 11:15:05;;;;;;;27.77;22.83;;;9.40;95.30;;;;;;4995789;28;20129;-78
2020/12/17 11:17:53;;;;;;;26.23;21.55;;;9.60;95.20;;;;;;5039992;28;20402;-78
2020/12/17 11:20:22;;;;;;;27.50;22.10;;;9.50;95.40;;;;;;5029196;28;20038;-79
2020/12/17 11:22:59;;;;;;;31.30;22.45;;;10.30;95.60;;;;;;5011222;28;20041;-86
2020/12/17 11:25:37;;;;;;;25.67;22.58;;;9.50;95.40;;;;;;5029372;28;20478;-83
2020/12/17 11:28:13;;;;;;;24.98;21.50;;;9.60;95.40;;;;;;5014092;28;20088;-80
2020/12/17 11:30:59;;;;;;;31.13;23.35;;;9.50;95.40;;;;;;5010952;28;20049;-80
2020/12/17 11:33:28;;;;;;;32.30;24.23;;;9.60;95.60;;;;;;5013196;28;20026;-79
2020/12/17 11:36:08;;;;;;;28.95;23.70;;;10.10;95.40;;;;;;5014346;28;20037;-79
2020/12/17 11:38:54;;;;;;;31.17;23.20;;;9.30;95.20;;;;;;4997290;28;20398;-77
2020/12/17 11:41:20;;;;;;;28.23;22.13;;;9.60;95.20;;;;;;5013248;28;20084;-77
2020/12/17 11:44:06;;;;;;;30.10;23.13;;;10.30;95.60;;;;;;5008161;28;20054;-77
2020/12/17 11:46:34;;;;;;;24.75;20.60;;;9.60;95.20;;;;;;5012957;28;20084;-78
2020/12/17 11:48:59;;;;;;;25.98;20.33;;;9.60;95.30;;;;;;5013062;28;20038;-83
2020/12/17 11:51:52;;;;;;;38.78;26.77;;;9.80;95.30;;;;;;5012839;28;20536;-81
2020/12/17 11:54:19;;;;;;;30.13;23.40;;;10.50;95.60;;;;;;5013003;28;20038;-83
2020/12/17 11:56:51;;;;;;;29.10;21.17;;;9.60;95.50;;;;;;5010729;28;20123;-83
2020/12/17 11:59:18;;;;;;;33.83;23.65;;;9.60;95.30;;;;;;5013890;28;20037;-83
2020/12/17 12:02:06;;;;;;;24.67;20.05;;;9.70;95.50;;;;;;4999144;28;20037;-84
2020/12/17 12:04:32;;;;;;;29.45;22.05;;;9.70;95.50;;;;;;5045090;28;20042;-84
2020/12/17 12:06:58;;;;;;;35.38;24.17;;;9.60;95.40;;;;;;5012316;28;20038;-83
2020/12/17 12:09:24;;;;;;;29.77;22.25;;;9.70;95.40;;;;;;5012027;28;20597;-82
2020/12/17 12:11:54;;;;;;;28.98;23.27;;;9.60;95.40;;;;;;5012168;28;20112;-85
2020/12/17 12:14:40;;;;;;;24.52;19.33;;;9.70;95.40;;;;;;5013001;28;20466;-85
2020/12/17 12:17:05;;;;;;;28.52;20.52;;;9.80;95.40;;;;;;5013487;28;20065;-85
2020/12/17 12:19:32;;;;;;;30.75;21.85;;;9.70;95.40;;;;;;5013862;28;20041;-85
2020/12/17 12:21:58;;;;;;;32.35;22.90;;;9.90;95.40;;;;;;5012388;28;20046;-85
2020/12/17 12:24:26;;;;;;;30.08;21.35;;;9.70;95.30;;;;;;5012448;28;20036;-85
2020/12/17 12:27:12;;;;;;;29.02;19.83;;;10.20;95.50;;;;;;5037718;28;20391;-85
2020/12/17 12:29:38;;;;;;;26.63;19.30;;;9.70;95.20;;;;;;5011700;28;20041;-84
2020/12/17 12:32:04;;;;;;;28.05;18.48;;;9.70;95.10;;;;;;5016909;28;20038;-84
2020/12/17 12:34:30;;;;;;;28.17;19.23;;;9.70;95.10;;;;;;5013612;28;20068;-84
2020/12/17 12:36:57;;;;;;;26.13;17.45;;;9.70;95.10;;;;;;4996846;28;20108;-84
2020/12/17 12:39:24;;;;;;;23.38;16.85;;;9.70;95.00;;;;;;5012636;28;20041;-84
2020/12/17 12:41:51;;;;;;;27.73;16.52;;;9.70;94.90;;;;;;5012690;28;20034;-78
2020/12/17 12:44:17;;;;;;;23.13;15.52;;;9.70;94.70;;;;;;5010856;28;20054;-77
2020/12/17 12:46:47;;;;;;;22.95;12.52;;;9.70;94.70;;;;;;5017521;28;20393;-78
2020/12/17 12:49:33;;;;;;;21.70;13.30;;;10.70;94.80;;;;;;4998170;28;20506;-85
2020/12/17 12:51:59;;;;;;;19.90;12.48;;;9.90;94.70;;;;;;5012274;28;20061;-85
2020/12/17 12:54:25;;;;;;;20.02;11.90;;;9.80;94.20;;;;;;5044925;28;20045;-86
2020/12/17 12:56:52;;;;;;;19.92;10.57;;;9.80;94.40;;;;;;5010674;28;20042;-85
2020/12/17 12:59:37;;;;;;;24.23;10.60;;;9.90;94.20;;;;;;4997271;28;20049;-84
2020/12/17 13:02:03;;;;;;;17.38;9.77;;;10.70;94.30;;;;;;5027547;28;20042;-85
2020/12/17 13:04:49;;;;;;;15.95;7.93;;;10.00;94.00;;;;;;4998107;28;20058;-85
2020/12/17 13:07:35;;;;;;;20.27;8.00;;;9.90;93.70;;;;;;4985489;28;20380;-86